Lake Valley, New Mexico
Current Conditions -  °F | °C
As of 7:35 AM on Tuesday 27 Jan 2015 (Local Time) from KGNT Reporting Station
Broken Clouds Broken Clouds  
Wind Chill: 18°   Ceiling: 7000
Heat Index: 28°   Visibility: 10mi
Dew Point: 26°   Wind: 12mph
Humidity: 92%   Direction: 320°NW
Pressure: 30.4"   Gusts: NA
Location:  35.803°N, 107.893°W
Report Text: KGNT 271435Z AUTO 32010KT 10SM SCT043 BKN070 BKN080 M02/M03 A3040 RMK AO2 T10201032
Loading
Personal Weather Stations






























Interactive Weather Map New forecast layout! Learn more

10-Day Weather Forecast

Advertisements
Track Severe Weather on mobile